createdAt,value
2022-07-26T00:02:03.928Z,1.07
2022-07-26T00:04:50.921Z,1.70
2022-07-26T00:07:37.370Z,1.30
2022-07-26T00:10:23.793Z,1.30
2022-07-26T00:13:10.496Z,1.70
2022-07-26T00:15:59.346Z,1.30
2022-07-26T00:18:47.527Z,1.10
2022-07-26T00:21:34.665Z,1.77
2022-07-26T00:24:21.036Z,1.17
2022-07-26T00:27:07.549Z,1.37
2022-07-26T00:29:54.225Z,1.33
2022-07-26T00:32:42.219Z,1.10
2022-07-26T00:35:29.061Z,1.30
2022-07-26T00:38:15.392Z,1.40
2022-07-26T00:41:01.896Z,1.60
2022-07-26T00:43:56.007Z,1.10
2022-07-26T00:46:43.484Z,1.13
2022-07-26T00:49:31.585Z,1.10
2022-07-26T00:52:18.486Z,1.23
2022-07-26T00:55:07.502Z,1.10
2022-07-26T00:57:53.959Z,1.40
2022-07-26T01:00:40.479Z,1.20
2022-07-26T01:03:30.288Z,1.17
2022-07-26T01:06:27.279Z,1.67
2022-07-26T01:09:15.251Z,0.90
2022-07-26T01:12:01.870Z,1.20
2022-07-26T01:14:48.447Z,1.10
2022-07-26T01:17:38.186Z,1.07
2022-07-26T01:20:24.998Z,1.13
2022-07-26T01:23:13.368Z,1.30
2022-07-26T01:25:59.885Z,1.33
2022-07-26T01:28:49.347Z,1.40
2022-07-26T01:31:35.712Z,1.47
2022-07-26T01:34:22.627Z,1.30
2022-07-26T01:37:09.214Z,1.33
2022-07-26T01:39:57.013Z,1.83
2022-07-26T01:42:43.728Z,1.47
2022-07-26T01:45:30.314Z,1.30
2022-07-26T01:48:17.438Z,1.50
2022-07-26T01:51:04.621Z,1.97
2022-07-26T01:53:51.363Z,1.57
2022-07-26T01:56:39.075Z,1.40
2022-07-26T01:59:25.721Z,1.47
2022-07-26T02:02:12.328Z,1.73
2022-07-26T02:05:02.017Z,1.50
2022-07-26T02:07:48.572Z,1.87
2022-07-26T02:10:49.156Z,1.53
2022-07-26T02:13:39.172Z,1.33
2022-07-26T02:16:25.540Z,1.80
2022-07-26T02:19:11.991Z,1.57
2022-07-26T02:21:58.501Z,1.97
2022-07-26T02:24:44.874Z,1.60
2022-07-26T02:27:32.114Z,1.70
2022-07-26T02:30:19.946Z,1.70
2022-07-26T02:33:06.485Z,1.70
2022-07-26T02:35:52.741Z,1.80
2022-07-26T02:38:39.364Z,1.50
2022-07-26T02:41:25.909Z,2.00
2022-07-26T02:44:12.494Z,1.90
2022-07-26T02:47:00.404Z,1.60
2022-07-26T02:49:46.926Z,1.77
2022-07-26T02:52:33.240Z,1.73
2022-07-26T02:55:22.800Z,1.93
2022-07-26T02:58:09.624Z,1.70
2022-07-26T03:00:56.147Z,1.90
2022-07-26T03:03:50.113Z,1.90
2022-07-26T03:06:37.250Z,2.10
2022-07-26T03:09:23.900Z,1.93
2022-07-26T03:12:10.325Z,1.60
2022-07-26T03:14:56.727Z,1.83
2022-07-26T03:17:43.198Z,1.50
2022-07-26T03:20:31.290Z,1.70
2022-07-26T03:23:18.033Z,2.57
2022-07-26T03:26:05.101Z,2.30
2022-07-26T03:28:51.767Z,1.70
2022-07-26T03:31:38.347Z,2.30
2022-07-26T03:34:25.230Z,1.80
2022-07-26T03:37:13.020Z,1.97
2022-07-26T03:39:59.636Z,2.70
2022-07-26T03:42:47.484Z,2.33
2022-07-26T03:45:33.953Z,2.03
2022-07-26T03:48:20.363Z,2.43
2022-07-26T03:51:06.830Z,2.23
2022-07-26T03:53:54.994Z,2.50
2022-07-26T03:56:43.216Z,2.40
2022-07-26T03:59:29.478Z,2.37
2022-07-26T04:02:16.294Z,2.07
2022-07-26T04:05:02.910Z,2.10
2022-07-26T04:07:53.359Z,2.60
2022-07-26T04:10:45.539Z,2.43
2022-07-26T04:13:32.013Z,2.30
2022-07-26T04:16:18.528Z,2.33
2022-07-26T04:19:05.037Z,2.40
2022-07-26T04:21:51.563Z,2.20
2022-07-26T04:24:37.931Z,2.17
2022-07-26T04:27:25.801Z,1.83
2022-07-26T04:30:15.317Z,1.97
2022-07-26T04:33:02.231Z,2.07
2022-07-26T04:35:48.658Z,2.40
2022-07-26T04:38:35.176Z,2.73
2022-07-26T04:41:21.518Z,2.00
2022-07-26T04:44:09.703Z,2.20
2022-07-26T04:46:56.690Z,2.60
2022-07-26T04:49:43.228Z,2.90
2022-07-26T04:52:29.574Z,2.80
2022-07-26T04:55:16.074Z,2.67
2022-07-26T04:58:02.788Z,2.53
2022-07-26T05:03:57.413Z,2.73
2022-07-26T05:06:44.012Z,2.33
2022-07-26T05:09:30.995Z,2.63
2022-07-26T05:12:17.429Z,2.20
2022-07-26T05:15:04.492Z,2.20
2022-07-26T05:17:52.622Z,2.50
2022-07-26T05:20:40.924Z,2.50
2022-07-26T05:23:27.574Z,3.17
2022-07-26T05:26:13.880Z,2.80
2022-07-26T05:29:00.339Z,2.60
2022-07-26T05:31:46.834Z,3.07
2022-07-26T05:34:34.538Z,2.70
2022-07-26T05:37:21.350Z,2.97
2022-07-26T05:40:09.065Z,2.27
2022-07-26T05:42:55.600Z,2.57
2022-07-26T05:45:42.037Z,2.60
2022-07-26T05:48:28.604Z,2.63
2022-07-26T05:51:16.764Z,2.80
2022-07-26T05:54:03.276Z,2.70
2022-07-26T05:56:49.868Z,2.83
2022-07-26T05:59:36.311Z,3.03
2022-07-26T06:02:22.923Z,3.23
2022-07-26T06:05:10.361Z,2.90
2022-07-26T06:07:58.281Z,2.83
2022-07-26T06:10:45.320Z,3.20
2022-07-26T06:13:31.945Z,3.23
2022-07-26T06:16:18.549Z,4.00
2022-07-26T06:19:05.249Z,3.23
2022-07-26T06:21:51.661Z,3.17
2022-07-26T06:24:39.316Z,3.27
2022-07-26T06:27:25.882Z,3.07
2022-07-26T06:30:13.323Z,3.27
2022-07-26T06:32:59.971Z,4.00
2022-07-26T06:35:46.197Z,3.90
2022-07-26T06:38:33.438Z,3.33
2022-07-26T06:41:21.112Z,3.20
2022-07-26T06:44:08.078Z,3.63
2022-07-26T06:46:54.821Z,3.30
2022-07-26T06:49:41.451Z,2.93
2022-07-26T06:52:27.777Z,3.40
2022-07-26T06:55:14.632Z,3.77
2022-07-26T06:58:02.810Z,3.17
2022-07-26T07:00:49.438Z,3.37
2022-07-26T07:03:36.257Z,3.83
2022-07-26T07:06:22.708Z,2.80
2022-07-26T07:09:09.438Z,3.00
2022-07-26T07:12:02.516Z,3.03
2022-07-26T07:14:54.497Z,3.07
2022-07-26T07:17:41.186Z,3.00
2022-07-26T07:20:28.415Z,3.67
2022-07-26T07:23:14.787Z,3.37
2022-07-26T07:26:01.366Z,3.03
2022-07-26T07:28:48.622Z,3.00
2022-07-26T07:31:48.977Z,2.90
2022-07-26T07:34:35.845Z,3.10
2022-07-26T07:37:22.768Z,2.47
2022-07-26T07:40:10.792Z,3.00
2022-07-26T07:42:58.236Z,3.10
2022-07-26T07:45:44.976Z,3.20
2022-07-26T07:48:39.360Z,2.83
2022-07-26T07:51:27.790Z,2.60
2022-07-26T07:54:16.728Z,2.53
2022-07-26T07:57:03.012Z,2.90
2022-07-26T07:59:50.553Z,2.17
2022-07-26T08:02:37.084Z,2.60
2022-07-26T08:05:24.986Z,2.90
2022-07-26T08:08:11.524Z,2.50
2022-07-26T08:10:57.986Z,1.53
2022-07-26T08:13:47.734Z,1.90
2022-07-26T08:16:34.836Z,2.30
2022-07-26T08:19:22.646Z,2.30
2022-07-26T08:22:10.889Z,2.10
2022-07-26T08:24:57.401Z,2.67
2022-07-26T08:27:51.102Z,1.73
2022-07-26T08:30:49.411Z,1.60
2022-07-26T08:33:35.845Z,1.50
2022-07-26T08:36:32.327Z,1.80
2022-07-26T08:39:20.810Z,1.50
2022-07-26T08:42:14.365Z,1.30
2022-07-26T08:45:01.168Z,1.40
2022-07-26T08:48:15.129Z,1.67
2022-07-26T08:50:55.738Z,1.50
2022-07-26T08:53:42.467Z,1.40
2022-07-26T08:56:30.296Z,1.90
2022-07-26T08:59:21.804Z,1.57
2022-07-26T09:02:11.245Z,1.60
2022-07-26T09:05:05.610Z,1.67
2022-07-26T09:07:52.233Z,1.70
2022-07-26T09:10:39.305Z,1.47
2022-07-26T09:13:27.580Z,1.80
2022-07-26T09:16:14.535Z,1.73
2022-07-26T09:19:17.834Z,1.40
2022-07-26T09:22:10.870Z,1.70
2022-07-26T09:24:57.676Z,2.00
2022-07-26T09:27:44.411Z,1.57
2022-07-26T09:30:33.165Z,1.57
2022-07-26T09:33:19.562Z,1.97
2022-07-26T09:36:08.177Z,1.90
2022-07-26T09:38:57.891Z,1.83
2022-07-26T09:41:44.356Z,1.67
2022-07-26T09:44:30.770Z,2.10
2022-07-26T09:47:19.086Z,1.73
2022-07-26T09:50:14.605Z,1.60
2022-07-26T09:53:08.634Z,1.20
2022-07-26T09:55:57.368Z,0.97
2022-07-26T09:58:44.162Z,1.17
2022-07-26T10:01:30.564Z,1.23
2022-07-26T10:04:19.858Z,0.93
2022-07-26T10:07:06.704Z,1.20
2022-07-26T10:09:59.374Z,1.00
2022-07-26T10:12:46.860Z,1.07
2022-07-26T10:15:42.173Z,1.40
2022-07-26T10:18:46.041Z,1.13
2022-07-26T10:21:35.242Z,1.00
2022-07-26T10:24:27.033Z,0.70
2022-07-26T10:27:37.722Z,0.80
2022-07-26T10:30:28.936Z,0.90
2022-07-26T10:33:24.736Z,0.90
2022-07-26T10:36:23.223Z,0.80
2022-07-26T10:39:13.697Z,1.10
2022-07-26T10:42:02.542Z,1.00
2022-07-26T10:44:49.868Z,1.00
2022-07-26T10:47:36.560Z,1.10
2022-07-26T10:50:33.715Z,1.23
2022-07-26T10:53:23.409Z,0.80
2022-07-26T10:56:11.147Z,0.90
2022-07-26T10:58:58.355Z,0.70
2022-07-26T11:01:45.642Z,0.70
2022-07-26T11:04:32.406Z,0.80
2022-07-26T11:07:21.677Z,0.73
2022-07-26T11:10:08.607Z,0.70
2022-07-26T11:13:09.803Z,0.80
2022-07-26T11:16:02.467Z,1.10
2022-07-26T11:18:49.139Z,1.13
2022-07-26T11:21:35.825Z,1.10
2022-07-26T11:24:23.024Z,1.20
2022-07-26T11:27:09.522Z,0.93
2022-07-26T11:29:57.387Z,1.30
2022-07-26T11:32:53.497Z,1.07
2022-07-26T11:35:51.672Z,1.20
2022-07-26T11:38:46.045Z,1.40
2022-07-26T11:41:34.928Z,1.43
2022-07-26T11:44:23.858Z,1.40
2022-07-26T11:47:16.409Z,1.37
2022-07-26T11:50:21.883Z,1.30
2022-07-26T11:53:22.204Z,1.10
2022-07-26T11:56:17.789Z,1.40
2022-07-26T11:59:04.667Z,1.30
2022-07-26T12:01:51.741Z,1.13
2022-07-26T12:04:42.157Z,1.20
2022-07-26T12:07:28.940Z,0.80
2022-07-26T12:10:17.625Z,1.03
2022-07-26T12:13:12.677Z,0.97
2022-07-26T12:15:59.840Z,0.97
2022-07-26T12:18:52.531Z,0.80
2022-07-26T12:21:42.484Z,1.00
2022-07-26T12:24:38.287Z,0.70
2022-07-26T12:27:26.546Z,1.30
2022-07-26T12:30:17.667Z,1.07
2022-07-26T12:33:04.283Z,1.10
2022-07-26T12:35:50.787Z,1.00
2022-07-26T12:38:43.052Z,1.00
2022-07-26T12:41:36.356Z,0.90
2022-07-26T12:44:23.540Z,0.90
2022-07-26T12:47:09.779Z,1.00
2022-07-26T12:49:56.752Z,0.73
2022-07-26T12:52:43.883Z,1.00
2022-07-26T12:55:32.680Z,0.80
2022-07-26T12:58:19.092Z,1.10
2022-07-26T13:01:05.852Z,1.13
2022-07-26T13:03:52.801Z,1.07
2022-07-26T13:06:39.695Z,0.93
2022-07-26T13:09:26.290Z,0.83
2022-07-26T13:12:15.874Z,1.10
2022-07-26T13:15:02.725Z,1.30
2022-07-26T13:17:49.071Z,1.10
2022-07-26T13:20:35.701Z,1.20
2022-07-26T13:23:26.657Z,0.83
2022-07-26T13:26:14.051Z,1.00
2022-07-26T13:29:02.454Z,0.90
2022-07-26T13:31:50.981Z,1.00
2022-07-26T13:34:37.675Z,1.23
2022-07-26T13:37:23.903Z,1.00
2022-07-26T13:40:11.502Z,1.03
2022-07-26T13:42:58.172Z,1.00
2022-07-26T13:45:45.998Z,0.90
2022-07-26T13:48:32.523Z,0.83
2022-07-26T13:51:19.489Z,0.87
2022-07-26T13:54:06.145Z,1.00
2022-07-26T13:56:52.610Z,1.00
2022-07-26T13:59:38.991Z,1.03
2022-07-26T14:02:27.426Z,0.87
2022-07-26T14:05:14.465Z,1.10
2022-07-26T14:08:00.959Z,0.80
2022-07-26T14:10:47.493Z,0.97
2022-07-26T14:13:34.006Z,0.87
2022-07-26T14:16:20.918Z,0.90
2022-07-26T14:19:09.195Z,1.20
2022-07-26T14:21:59.297Z,1.00
2022-07-26T14:24:47.276Z,0.90
2022-07-26T14:27:34.104Z,0.93
2022-07-26T14:30:21.777Z,1.00
2022-07-26T14:33:09.526Z,1.10
2022-07-26T14:35:57.149Z,0.80
2022-07-26T14:38:44.673Z,1.20
2022-07-26T14:41:32.258Z,1.03
2022-07-26T14:44:19.035Z,1.93
2022-07-26T14:47:06.971Z,0.80
2022-07-26T14:49:53.740Z,1.00
2022-07-26T14:52:46.270Z,1.07
2022-07-26T14:55:32.775Z,1.83
2022-07-26T14:58:19.384Z,1.60
2022-07-26T15:01:06.261Z,1.10
2022-07-26T15:03:53.474Z,1.10
2022-07-26T15:06:39.885Z,1.23
2022-07-26T15:09:27.797Z,1.20
2022-07-26T15:12:14.413Z,1.30
2022-07-26T15:15:00.854Z,1.10
2022-07-26T15:17:47.250Z,1.40
2022-07-26T15:20:33.738Z,1.47
2022-07-26T15:23:20.435Z,1.77
2022-07-26T15:26:08.668Z,1.93
2022-07-26T15:28:55.445Z,1.30
2022-07-26T15:31:42.192Z,1.80
2022-07-26T15:34:28.942Z,1.27
2022-07-26T15:37:15.378Z,1.30
2022-07-26T15:40:02.010Z,1.47
2022-07-26T15:42:52.220Z,1.30
2022-07-26T15:45:41.415Z,1.57
2022-07-26T15:48:28.257Z,1.60
2022-07-26T15:51:16.167Z,1.57
2022-07-26T15:54:04.776Z,1.43
2022-07-26T15:56:51.530Z,2.13
2022-07-26T15:59:39.362Z,1.97
2022-07-26T16:02:25.979Z,1.40
2022-07-26T16:05:13.230Z,1.60
2022-07-26T16:07:59.640Z,1.57
2022-07-26T16:10:46.021Z,1.43
2022-07-26T16:13:32.506Z,1.30
2022-07-26T16:16:20.286Z,1.60
2022-07-26T16:19:07.104Z,1.20
2022-07-26T16:21:53.992Z,1.20
2022-07-26T16:24:40.359Z,1.60
2022-07-26T16:27:26.762Z,1.70
2022-07-26T16:30:14.781Z,2.07
2022-07-26T16:33:02.897Z,1.40
2022-07-26T16:35:49.289Z,1.40
2022-07-26T16:38:35.906Z,1.37
2022-07-26T16:41:22.689Z,2.17
2022-07-26T16:44:09.128Z,1.70
2022-07-26T16:46:57.244Z,1.17
2022-07-26T16:49:45.451Z,1.63
2022-07-26T16:52:32.307Z,1.33
2022-07-26T16:55:18.713Z,1.57
2022-07-26T16:58:04.969Z,1.70
2022-07-26T17:00:51.448Z,1.17
2022-07-26T17:03:38.379Z,1.50
2022-07-26T17:06:26.486Z,1.37
2022-07-26T17:09:15.061Z,1.00
2022-07-26T17:12:06.370Z,1.57
2022-07-26T17:14:53.492Z,1.17
2022-07-26T17:17:39.852Z,1.30
2022-07-26T17:20:26.551Z,1.37
2022-07-26T17:23:14.741Z,2.00
2022-07-26T17:26:01.317Z,1.10
2022-07-26T17:28:48.349Z,1.60
2022-07-26T17:31:35.218Z,1.20
2022-07-26T17:34:21.651Z,1.27
2022-07-26T17:37:09.964Z,1.27
2022-07-26T17:39:59.637Z,1.60
2022-07-26T17:42:46.654Z,1.73
2022-07-26T17:45:33.166Z,1.50
2022-07-26T17:48:19.717Z,1.50
2022-07-26T17:51:06.221Z,1.17
2022-07-26T17:53:53.420Z,1.47
2022-07-26T17:56:41.234Z,1.60
2022-07-26T17:59:27.903Z,1.57
2022-07-26T18:02:14.527Z,1.50
2022-07-26T18:05:02.357Z,1.17
2022-07-26T18:07:48.999Z,1.37
2022-07-26T18:10:35.354Z,1.27
2022-07-26T18:13:23.081Z,1.53
2022-07-26T18:16:09.742Z,1.53
2022-07-26T18:18:56.588Z,0.90
2022-07-26T18:21:43.037Z,1.20
2022-07-26T18:24:29.765Z,1.60
2022-07-26T18:27:16.272Z,1.30
2022-07-26T18:30:05.060Z,1.30
2022-07-26T18:32:51.691Z,1.63
2022-07-26T18:35:38.240Z,1.30
2022-07-26T18:38:24.679Z,1.10
2022-07-26T18:41:12.404Z,1.33
2022-07-26T18:43:59.547Z,1.40
2022-07-26T18:46:47.324Z,1.23
2022-07-26T18:49:33.886Z,1.10
2022-07-26T18:52:31.584Z,1.40
2022-07-26T18:55:18.934Z,1.00
2022-07-26T18:58:07.712Z,1.03
2022-07-26T19:00:55.133Z,0.90
2022-07-26T19:03:43.014Z,1.23
2022-07-26T19:06:29.536Z,1.37
2022-07-26T19:09:16.099Z,1.20
2022-07-26T19:12:02.584Z,1.13
2022-07-26T19:14:48.897Z,1.13
2022-07-26T19:17:35.402Z,1.40
2022-07-26T19:20:23.207Z,0.87
2022-07-26T19:23:11.194Z,1.33
2022-07-26T19:25:57.449Z,0.87
2022-07-26T19:28:44.048Z,1.00
2022-07-26T19:31:30.542Z,1.20
2022-07-26T19:34:17.530Z,1.20
2022-07-26T19:37:05.875Z,1.30
2022-07-26T19:39:55.675Z,1.40
2022-07-26T19:42:42.816Z,1.20
2022-07-26T19:45:29.207Z,1.20
2022-07-26T19:48:15.723Z,1.10
2022-07-26T19:51:02.065Z,1.00
2022-07-26T19:53:50.338Z,1.00
2022-07-26T19:56:37.224Z,1.10
2022-07-26T19:59:24.751Z,1.13
2022-07-26T20:02:11.577Z,1.10
2022-07-26T20:04:58.504Z,0.90
2022-07-26T20:07:44.906Z,1.00
2022-07-26T20:10:32.687Z,1.10
2022-07-26T20:13:19.443Z,1.37
2022-07-26T20:16:06.485Z,1.20
2022-07-26T20:18:53.089Z,1.23
2022-07-26T20:21:39.501Z,1.20
2022-07-26T20:24:26.099Z,1.43
2022-07-26T20:27:14.080Z,1.20
2022-07-26T20:30:01.453Z,1.20
2022-07-26T20:32:48.148Z,1.40
2022-07-26T20:35:34.871Z,1.20
2022-07-26T20:38:21.288Z,1.00
2022-07-26T20:41:07.809Z,1.50
2022-07-26T20:43:56.893Z,1.10
2022-07-26T20:46:43.767Z,1.10
2022-07-26T20:49:30.370Z,1.33
2022-07-26T20:52:17.324Z,1.00
2022-07-26T20:55:04.446Z,1.10
2022-07-26T20:57:51.079Z,1.03
2022-07-26T21:00:38.877Z,1.10
2022-07-26T21:03:25.565Z,1.17
2022-07-26T21:06:12.036Z,0.80
2022-07-26T21:08:58.759Z,1.13
2022-07-26T21:11:45.240Z,1.70
2022-07-26T21:14:32.036Z,1.20
2022-07-26T21:17:20.238Z,1.20
2022-07-26T21:20:07.822Z,1.00
2022-07-26T21:23:03.640Z,0.90
2022-07-26T21:26:00.635Z,1.30
2022-07-26T21:28:47.949Z,1.50
2022-07-26T21:31:35.182Z,1.40
2022-07-26T21:34:24.881Z,1.60
2022-07-26T21:37:11.567Z,1.27
2022-07-26T21:40:00.647Z,1.00
2022-07-26T21:42:47.765Z,1.17
2022-07-26T21:45:34.387Z,1.20
2022-07-26T21:48:21.169Z,1.33
2022-07-26T21:51:08.925Z,1.00
2022-07-26T21:53:55.572Z,1.10
2022-07-26T21:56:42.007Z,1.37
2022-07-26T21:59:28.389Z,1.00
2022-07-26T22:02:14.827Z,1.00
2022-07-26T22:05:28.440Z,1.10
2022-07-26T22:08:16.401Z,1.30
2022-07-26T22:11:04.184Z,1.30
2022-07-26T22:13:50.813Z,1.40
2022-07-26T22:16:37.210Z,1.10
2022-07-26T22:19:23.586Z,1.00
2022-07-26T22:22:10.114Z,1.20
2022-07-26T22:24:57.769Z,1.10
2022-07-26T22:27:44.377Z,0.80
2022-07-26T22:30:31.117Z,1.10
2022-07-26T22:33:18.004Z,1.10
2022-07-26T22:36:05.118Z,1.13
2022-07-26T22:38:51.694Z,1.10
2022-07-26T22:42:05.187Z,1.37
2022-07-26T22:44:46.560Z,1.20
2022-07-26T22:47:32.892Z,1.07
2022-07-26T22:50:19.417Z,1.07
2022-07-26T22:53:06.036Z,1.43
2022-07-26T22:55:52.645Z,1.20
2022-07-26T22:58:40.845Z,1.10
2022-07-26T23:01:27.251Z,1.53
2022-07-26T23:04:13.909Z,1.20
2022-07-26T23:07:00.831Z,1.30
2022-07-26T23:09:48.210Z,1.13
2022-07-26T23:12:34.991Z,1.00
2022-07-26T23:15:22.709Z,0.80
2022-07-26T23:18:09.498Z,1.00
2022-07-26T23:20:55.912Z,0.90
2022-07-26T23:23:42.320Z,1.20
2022-07-26T23:26:28.803Z,0.90
2022-07-26T23:29:15.454Z,1.00
2022-07-26T23:32:03.692Z,1.20
2022-07-26T23:34:50.566Z,1.23
2022-07-26T23:37:36.883Z,0.90
2022-07-26T23:40:24.913Z,0.87
2022-07-26T23:43:11.254Z,1.10
2022-07-26T23:45:57.594Z,0.90
2022-07-26T23:48:45.609Z,0.80
2022-07-26T23:51:32.730Z,1.33
2022-07-26T23:54:19.223Z,0.90
2022-07-26T23:57:05.797Z,1.50
2022-07-26T23:59:52.364Z,1.20
